Time;durP1;ratioP1;P1;durP2;ratioP2;P2;SDS_P1;SDS_P2;PMS_P1;PMS_P2;Temp;Humidity;BMP_temperature;BMP_pressure;BME280_temperature;BME280_humidity;BME280_pressure;Samples;Min_cycle;Max_cycle;Signal;HPM_P1;HPM_P2
2021/08/17 00:00:54;;;;;;;11.57;6.30;;;;;;;;;;5126290;27;20285;-77
2021/08/17 00:03:23;;;;;;;11.13;6.43;;;;;;;;;;5126910;27;20288;-77
2021/08/17 00:05:50;;;;;;;15.50;6.90;;;;;;;;;;5122491;27;20202;-78
2021/08/17 00:08:18;;;;;;;11.20;6.77;;;;;;;;;;5122782;27;20216;-77
2021/08/17 00:10:45;;;;;;;12.67;6.57;;;;;;;;;;5133560;27;20633;-77
2021/08/17 00:13:12;;;;;;;13.23;7.17;;;;;;;;;;5116266;27;20204;-77
2021/08/17 00:15:41;;;;;;;16.60;7.40;;;;;;;;;;5112529;28;20205;-77
2021/08/17 00:18:08;;;;;;;15.10;6.20;;;;;;;;;;5117364;28;20284;-77
2021/08/17 00:20:35;;;;;;;14.03;7.00;;;;;;;;;;5114961;27;20233;-77
2021/08/17 00:23:02;;;;;;;12.10;6.47;;;;;;;;;;5111794;28;20695;-78
2021/08/17 00:25:29;;;;;;;11.97;6.40;;;;;;;;;;5112733;28;20313;-77
2021/08/17 00:27:57;;;;;;;11.33;6.30;;;;;;;;;;5112574;28;20304;-77
2021/08/17 00:30:24;;;;;;;14.00;6.80;;;;;;;;;;5111839;28;20208;-78
2021/08/17 00:32:52;;;;;;;12.87;6.73;;;;;;;;;;5112412;28;20735;-77
2021/08/17 00:35:20;;;;;;;12.70;6.17;;;;;;;;;;5112620;28;20293;-77
2021/08/17 00:37:47;;;;;;;14.73;6.70;;;;;;;;;;5113220;28;20240;-77
2021/08/17 00:40:14;;;;;;;10.17;6.30;;;;;;;;;;5112271;28;20244;-77
2021/08/17 00:42:42;;;;;;;8.93;6.33;;;;;;;;;;5115139;28;20247;-77
2021/08/17 00:45:09;;;;;;;12.30;5.90;;;;;;;;;;5116985;28;20284;-77
2021/08/17 00:47:36;;;;;;;12.57;6.07;;;;;;;;;;5116105;27;20217;-77
2021/08/17 00:50:05;;;;;;;12.60;6.60;;;;;;;;;;5116462;28;20285;-78
2021/08/17 00:52:33;;;;;;;13.27;6.00;;;;;;;;;;5116324;28;20202;-77
2021/08/17 00:55:00;;;;;;;9.83;6.50;;;;;;;;;;5115577;28;20239;-77
2021/08/17 00:57:27;;;;;;;11.93;6.17;;;;;;;;;;5116406;28;20199;-77
2021/08/17 00:59:54;;;;;;;11.93;6.27;;;;;;;;;;5115971;28;20293;-77
2021/08/17 01:02:22;;;;;;;12.00;6.63;;;;;;;;;;5116328;28;20933;-77
2021/08/17 01:04:49;;;;;;;10.60;6.60;;;;;;;;;;5116059;28;20204;-77
2021/08/17 01:07:18;;;;;;;12.23;6.33;;;;;;;;;;5115844;27;20782;-77
2021/08/17 01:09:45;;;;;;;9.50;6.03;;;;;;;;;;5116195;28;20310;-77
2021/08/17 01:12:13;;;;;;;11.37;6.07;;;;;;;;;;5116142;28;20208;-77
2021/08/17 01:14:40;;;;;;;10.97;6.87;;;;;;;;;;5115723;28;20745;-77
2021/08/17 01:17:07;;;;;;;11.47;6.30;;;;;;;;;;5122599;27;20284;-77
2021/08/17 01:19:36;;;;;;;11.70;6.37;;;;;;;;;;5135285;27;20205;-77
2021/08/17 01:22:03;;;;;;;11.23;6.50;;;;;;;;;;5136495;27;20683;-77
2021/08/17 01:24:32;;;;;;;12.87;5.90;;;;;;;;;;5136589;27;20296;-77
2021/08/17 01:27:01;;;;;;;10.87;6.30;;;;;;;;;;5135177;27;20284;-77
2021/08/17 01:29:28;;;;;;;11.63;6.63;;;;;;;;;;5131889;27;20285;-78
2021/08/17 01:31:56;;;;;;;9.93;5.90;;;;;;;;;;5115879;27;20198;-77
2021/08/17 01:34:24;;;;;;;11.70;5.93;;;;;;;;;;5116219;28;20201;-77
2021/08/17 01:36:51;;;;;;;12.80;5.73;;;;;;;;;;5116198;27;20202;-77
2021/08/17 01:39:19;;;;;;;12.43;6.07;;;;;;;;;;5115267;28;20761;-77
2021/08/17 01:41:46;;;;;;;10.90;5.53;;;;;;;;;;5115263;28;20304;-78
2021/08/17 01:44:15;;;;;;;12.03;7.00;;;;;;;;;;5114919;28;20290;-78
2021/08/17 01:46:43;;;;;;;13.07;6.10;;;;;;;;;;5114680;28;20284;-77
2021/08/17 01:49:10;;;;;;;7.90;5.70;;;;;;;;;;5114778;28;20659;-77
2021/08/17 01:51:37;;;;;;;9.90;6.13;;;;;;;;;;5115635;28;20289;-77
2021/08/17 01:54:05;;;;;;;10.70;6.17;;;;;;;;;;5113989;28;20204;-78
2021/08/17 01:56:32;;;;;;;10.50;5.67;;;;;;;;;;5114959;28;20205;-77
2021/08/17 01:58:59;;;;;;;9.33;5.57;;;;;;;;;;5113997;28;20286;-77
2021/08/17 02:01:28;;;;;;;13.13;6.70;;;;;;;;;;5115135;28;20201;-78
2021/08/17 02:03:55;;;;;;;13.20;6.27;;;;;;;;;;5115004;28;20285;-77
2021/08/17 02:06:22;;;;;;;10.93;6.13;;;;;;;;;;5114703;28;20661;-77
2021/08/17 02:08:49;;;;;;;15.03;6.40;;;;;;;;;;5114746;28;20768;-77
2021/08/17 02:11:17;;;;;;;11.80;6.00;;;;;;;;;;5114241;28;20208;-78
2021/08/17 02:13:44;;;;;;;11.33;6.20;;;;;;;;;;5113898;28;20280;-77
2021/08/17 02:16:11;;;;;;;10.23;5.83;;;;;;;;;;5114627;28;20293;-77
2021/08/17 02:18:40;;;;;;;12.27;6.07;;;;;;;;;;5113697;28;20194;-78
2021/08/17 02:21:07;;;;;;;13.27;6.17;;;;;;;;;;5113729;27;20289;-77
2021/08/17 02:23:35;;;;;;;10.67;5.50;;;;;;;;;;5114280;28;20280;-78
2021/08/17 02:26:02;;;;;;;10.87;6.27;;;;;;;;;;5113718;28;20907;-78
2021/08/17 02:28:29;;;;;;;12.20;6.20;;;;;;;;;;5113616;28;20704;-77
2021/08/17 02:30:57;;;;;;;11.13;6.27;;;;;;;;;;5114109;28;20288;-78
2021/08/17 02:33:24;;;;;;;12.13;6.27;;;;;;;;;;5113939;28;20202;-78
2021/08/17 02:35:52;;;;;;;10.03;5.70;;;;;;;;;;5128847;27;20205;-77
2021/08/17 02:38:20;;;;;;;11.63;6.10;;;;;;;;;;5134959;27;20276;-77
2021/08/17 02:40:47;;;;;;;10.57;5.83;;;;;;;;;;5117221;27;20673;-77
2021/08/17 02:43:15;;;;;;;10.00;6.03;;;;;;;;;;5113838;28;20212;-77
2021/08/17 02:45:42;;;;;;;10.83;5.80;;;;;;;;;;5113933;28;20676;-78
2021/08/17 02:48:10;;;;;;;11.37;5.83;;;;;;;;;;5113936;28;20312;-77
2021/08/17 02:50:37;;;;;;;11.77;5.80;;;;;;;;;;5128419;27;20204;-78
2021/08/17 02:53:05;;;;;;;14.37;6.30;;;;;;;;;;5134173;27;20291;-78
2021/08/17 02:55:33;;;;;;;10.33;5.70;;;;;;;;;;5114192;27;20324;-77
2021/08/17 02:58:05;;;;;;;10.30;6.13;;;;;;;;;;5117580;27;20223;-77
2021/08/17 03:00:32;;;;;;;10.20;5.50;;;;;;;;;;5114190;27;20209;-77
2021/08/17 03:03:00;;;;;;;12.30;5.93;;;;;;;;;;5130984;27;20626;-77
2021/08/17 03:05:28;;;;;;;8.93;5.70;;;;;;;;;;5133831;27;20276;-77
2021/08/17 03:08:00;;;;;;;10.93;6.50;;;;;;;;;;5114074;27;20228;-77
2021/08/17 03:10:29;;;;;;;12.20;5.70;;;;;;;;;;5113277;28;20294;-78
2021/08/17 03:12:56;;;;;;;12.87;6.07;;;;;;;;;;5125077;27;20235;-77
2021/08/17 03:15:24;;;;;;;10.10;5.77;;;;;;;;;;5133666;27;20280;-77
2021/08/17 03:17:51;;;;;;;9.73;5.47;;;;;;;;;;5115572;27;20665;-77
2021/08/17 03:20:20;;;;;;;8.07;5.20;;;;;;;;;;5113471;28;20289;-77
2021/08/17 03:22:47;;;;;;;13.03;5.97;;;;;;;;;;5126647;27;20285;-77
2021/08/17 03:25:15;;;;;;;8.67;5.63;;;;;;;;;;5123909;27;20246;-77
2021/08/17 03:27:44;;;;;;;9.77;5.60;;;;;;;;;;5123550;27;20216;-77
2021/08/17 03:30:13;;;;;;;11.87;6.00;;;;;;;;;;5126115;27;20288;-78
2021/08/17 03:32:40;;;;;;;12.63;5.90;;;;;;;;;;5132926;27;20289;-77
2021/08/17 03:35:08;;;;;;;9.37;5.80;;;;;;;;;;5133638;27;20291;-77
2021/08/17 03:37:37;;;;;;;8.00;5.40;;;;;;;;;;5133886;27;20759;-77
2021/08/17 03:40:05;;;;;;;11.83;5.87;;;;;;;;;;5133330;27;20197;-77
2021/08/17 03:42:33;;;;;;;10.43;6.33;;;;;;;;;;5122041;27;20688;-77
2021/08/17 03:45:01;;;;;;;9.40;5.77;;;;;;;;;;5113282;28;20198;-77
2021/08/17 03:47:28;;;;;;;14.53;6.80;;;;;;;;;;5113134;28;20308;-77
2021/08/17 03:49:56;;;;;;;9.60;6.03;;;;;;;;;;5115244;27;20288;-78
2021/08/17 03:52:23;;;;;;;10.30;6.07;;;;;;;;;;5120167;27;20225;-77
2021/08/17 03:54:50;;;;;;;12.13;6.20;;;;;;;;;;5116645;27;20303;-78
2021/08/17 03:57:17;;;;;;;12.97;6.50;;;;;;;;;;5115475;27;20212;-77
2021/08/17 03:59:45;;;;;;;12.67;6.00;;;;;;;;;;5115711;27;20277;-77
2021/08/17 04:02:13;;;;;;;13.87;6.70;;;;;;;;;;5133577;27;20283;-77
2021/08/17 04:04:40;;;;;;;11.80;5.90;;;;;;;;;;5133178;27;20229;-77
2021/08/17 04:07:07;;;;;;;10.93;6.07;;;;;;;;;;5129953;27;20308;-77
2021/08/17 04:09:34;;;;;;;10.60;5.90;;;;;;;;;;5115712;28;20251;-77
2021/08/17 04:12:02;;;;;;;9.97;6.40;;;;;;;;;;5118360;27;20281;-77
2021/08/17 04:14:29;;;;;;;9.90;6.50;;;;;;;;;;5112907;28;20229;-77
2021/08/17 04:16:57;;;;;;;12.30;6.57;;;;;;;;;;5116447;27;20720;-77
2021/08/17 04:19:26;;;;;;;12.63;6.37;;;;;;;;;;5132336;27;20254;-77
2021/08/17 04:21:53;;;;;;;10.30;6.00;;;;;;;;;;5130648;27;20239;-77
2021/08/17 04:24:21;;;;;;;11.43;6.57;;;;;;;;;;5119754;27;20236;-77
2021/08/17 04:26:48;;;;;;;11.53;6.70;;;;;;;;;;5128224;27;20276;-77
2021/08/17 04:29:15;;;;;;;10.57;6.53;;;;;;;;;;5126362;27;20667;-77
2021/08/17 04:31:42;;;;;;;11.67;6.50;;;;;;;;;;5119847;27;20292;-78
2021/08/17 04:34:09;;;;;;;11.40;6.47;;;;;;;;;;5119678;27;20228;-77
2021/08/17 04:36:38;;;;;;;10.93;6.80;;;;;;;;;;5120170;27;20352;-77
2021/08/17 04:39:05;;;;;;;15.83;6.83;;;;;;;;;;5119344;27;20201;-78
2021/08/17 04:41:32;;;;;;;12.00;6.60;;;;;;;;;;5119639;27;20284;-78
2021/08/17 04:44:00;;;;;;;10.90;6.63;;;;;;;;;;5127144;27;20279;-77
2021/08/17 04:46:27;;;;;;;12.47;6.70;;;;;;;;;;5140063;27;20642;-78
2021/08/17 04:48:54;;;;;;;12.53;7.00;;;;;;;;;;5139743;27;20541;-78
2021/08/17 04:51:21;;;;;;;14.07;7.10;;;;;;;;;;5136946;27;20768;-77
2021/08/17 04:53:50;;;;;;;12.17;6.50;;;;;;;;;;5118767;27;20400;-77
2021/08/17 04:56:17;;;;;;;12.13;6.83;;;;;;;;;;5118975;27;20347;-77
2021/08/17 04:58:44;;;;;;;13.93;7.13;;;;;;;;;;5119474;27;20222;-77
2021/08/17 05:01:11;;;;;;;13.53;7.37;;;;;;;;;;5119274;27;20280;-77
2021/08/17 05:03:39;;;;;;;12.43;6.87;;;;;;;;;;5138725;27;20205;-77
2021/08/17 05:06:07;;;;;;;12.40;6.40;;;;;;;;;;5122815;27;20589;-77
2021/08/17 05:08:34;;;;;;;12.60;6.30;;;;;;;;;;5139148;27;20311;-78
2021/08/17 05:11:02;;;;;;;11.97;6.80;;;;;;;;;;5139483;27;20197;-78
2021/08/17 05:13:30;;;;;;;14.20;6.67;;;;;;;;;;5139294;27;20284;-77
2021/08/17 05:15:57;;;;;;;14.17;7.57;;;;;;;;;;5125092;27;20284;-77
2021/08/17 05:18:24;;;;;;;9.87;6.37;;;;;;;;;;5119054;27;20225;-77
2021/08/17 05:20:51;;;;;;;12.43;6.57;;;;;;;;;;5132542;27;20280;-77
2021/08/17 05:23:19;;;;;;;13.17;6.37;;;;;;;;;;5118915;27;20214;-77
2021/08/17 05:25:46;;;;;;;10.87;6.70;;;;;;;;;;5119235;27;20203;-78
2021/08/17 05:28:14;;;;;;;12.43;7.03;;;;;;;;;;5115933;27;20286;-78
2021/08/17 05:30:41;;;;;;;9.23;6.37;;;;;;;;;;5129885;27;20288;-77
2021/08/17 05:33:09;;;;;;;12.97;6.57;;;;;;;;;;5135078;27;20228;-77
2021/08/17 05:35:36;;;;;;;13.43;6.53;;;;;;;;;;5135440;27;20197;-77
2021/08/17 05:38:03;;;;;;;12.83;6.97;;;;;;;;;;5136360;27;20201;-78
2021/08/17 05:40:30;;;;;;;13.33;6.77;;;;;;;;;;5132109;27;20201;-77
2021/08/17 05:42:58;;;;;;;11.80;6.67;;;;;;;;;;5114376;27;20288;-78
2021/08/17 05:45:27;;;;;;;14.67;6.50;;;;;;;;;;5114170;27;20752;-77
2021/08/17 05:47:54;;;;;;;12.00;6.93;;;;;;;;;;5115502;28;20229;-77
2021/08/17 05:50:21;;;;;;;9.90;6.30;;;;;;;;;;5115286;27;20722;-77
2021/08/17 05:52:48;;;;;;;11.30;6.43;;;;;;;;;;5115267;28;20748;-78
2021/08/17 05:55:16;;;;;;;11.73;6.30;;;;;;;;;;5115118;28;20683;-77
2021/08/17 05:57:43;;;;;;;12.73;5.73;;;;;;;;;;5115373;27;20622;-76
2021/08/17 06:00:13;;;;;;;12.20;6.30;;;;;;;;;;5115436;28;20204;-79
2021/08/17 06:02:41;;;;;;;11.53;6.30;;;;;;;;;;5115087;27;20198;-79
2021/08/17 06:05:09;;;;;;;13.10;6.50;;;;;;;;;;5115154;27;20231;-78
2021/08/17 06:07:37;;;;;;;11.03;6.40;;;;;;;;;;5114677;27;20289;-79
2021/08/17 06:10:04;;;;;;;14.77;6.43;;;;;;;;;;5114657;28;20222;-79
2021/08/17 06:12:32;;;;;;;11.83;6.57;;;;;;;;;;5132427;27;20280;-78
2021/08/17 06:14:59;;;;;;;10.13;6.30;;;;;;;;;;5135714;27;20284;-78
2021/08/17 06:17:26;;;;;;;12.10;6.20;;;;;;;;;;5135333;27;20288;-79
2021/08/17 06:19:54;;;;;;;10.30;6.00;;;;;;;;;;5134873;27;20225;-79
2021/08/17 06:22:22;;;;;;;9.20;5.90;;;;;;;;;;5134076;27;20643;-78
2021/08/17 06:24:49;;;;;;;11.60;6.63;;;;;;;;;;5135421;27;20229;-78
2021/08/17 06:27:17;;;;;;;14.50;6.10;;;;;;;;;;5133870;27;20644;-78
2021/08/17 06:29:44;;;;;;;12.97;6.23;;;;;;;;;;5135114;27;20221;-78
2021/08/17 06:32:11;;;;;;;11.90;5.63;;;;;;;;;;5122707;27;20281;-79
2021/08/17 06:34:38;;;;;;;12.60;5.83;;;;;;;;;;5114388;28;20225;-78
2021/08/17 06:37:07;;;;;;;10.03;5.13;;;;;;;;;;5122153;27;20284;-78
2021/08/17 06:39:34;;;;;;;12.13;5.40;;;;;;;;;;5124503;27;20612;-77
2021/08/17 06:42:02;;;;;;;10.83;5.83;;;;;;;;;;5135087;27;20392;-77
2021/08/17 06:44:29;;;;;;;10.93;5.67;;;;;;;;;;5134443;27;20229;-76
2021/08/17 06:46:56;;;;;;;10.40;5.37;;;;;;;;;;5134520;27;20668;-74
2021/08/17 06:49:23;;;;;;;10.03;5.53;;;;;;;;;;5126682;27;20701;-75
2021/08/17 06:51:50;;;;;;;8.53;4.93;;;;;;;;;;5129293;27;20284;-76
2021/08/17 06:54:19;;;;;;;10.60;5.13;;;;;;;;;;5116124;27;20273;-75
2021/08/17 06:56:46;;;;;;;9.20;4.57;;;;;;;;;;5123702;27;20277;-75
2021/08/17 06:59:13;;;;;;;8.13;4.83;;;;;;;;;;5121841;27;20276;-75
2021/08/17 07:01:41;;;;;;;7.00;4.30;;;;;;;;;;5112254;28;20281;-75
2021/08/17 07:04:08;;;;;;;10.53;5.10;;;;;;;;;;5111421;28;20664;-76
2021/08/17 07:06:36;;;;;;;8.80;4.50;;;;;;;;;;5111905;28;20309;-76
2021/08/17 07:09:03;;;;;;;9.50;4.30;;;;;;;;;;5111276;28;20300;-74
2021/08/17 07:11:32;;;;;;;9.10;4.50;;;;;;;;;;5112948;27;20189;-75
2021/08/17 07:13:59;;;;;;;7.07;4.23;;;;;;;;;;5111756;27;20285;-74
2021/08/17 07:16:27;;;;;;;7.03;4.40;;;;;;;;;;5111675;28;20207;-75
2021/08/17 07:18:54;;;;;;;6.73;4.43;;;;;;;;;;5113881;27;20288;-75
2021/08/17 07:21:21;;;;;;;8.50;4.30;;;;;;;;;;5119075;27;20293;-75
2021/08/17 07:23:48;;;;;;;8.20;4.57;;;;;;;;;;5114923;27;20206;-75
2021/08/17 07:26:15;;;;;;;8.73;3.70;;;;;;;;;;5117661;27;20204;-75
2021/08/17 07:28:44;;;;;;;8.38;4.18;;;;;;;;;;5112914;27;20205;-75
2021/08/17 07:31:11;;;;;;;7.75;4.50;;;;;;;;;;5120596;27;20277;-75
2021/08/17 07:33:38;;;;;;;9.27;4.20;;;;;;;;;;5115836;27;20194;-75
2021/08/17 07:36:06;;;;;;;6.07;3.90;;;;;;;;;;5116220;27;20225;-76
2021/08/17 07:38:33;;;;;;;9.10;3.85;;;;;;;;;;5117922;27;20284;-75
2021/08/17 07:41:00;;;;;;;7.38;3.45;;;;;;;;;;5120378;27;20189;-75
2021/08/17 07:43:27;;;;;;;7.07;3.38;;;;;;;;;;5122948;27;20197;-74
2021/08/17 07:45:56;;;;;;;8.95;3.90;;;;;;;;;;5128553;27;20622;-75
2021/08/17 07:48:23;;;;;;;5.40;3.20;;;;;;;;;;5130571;27;20287;-76
2021/08/17 07:50:51;;;;;;;5.53;3.17;;;;;;;;;;5130485;27;20312;-75
2021/08/17 07:53:18;;;;;;;5.68;3.20;;;;;;;;;;5130067;27;20278;-75
2021/08/17 07:55:45;;;;;;;5.53;3.40;;;;;;;;;;5131682;27;20338;-75
2021/08/17 07:58:13;;;;;;;6.57;3.13;;;;;;;;;;5131362;27;20280;-75
2021/08/17 08:00:40;;;;;;;5.65;2.97;;;;;;;;;;5131601;27;20288;-76
2021/08/17 08:03:08;;;;;;;5.05;3.17;;;;;;;;;;5130472;27;20288;-75
2021/08/17 08:05:36;;;;;;;7.38;3.75;;;;;;;;;;5114317;27;20291;-74
2021/08/17 08:08:03;;;;;;;5.88;3.58;;;;;;;;;;5112219;28;20220;-74
2021/08/17 08:10:30;;;;;;;5.65;3.58;;;;;;;;;;5115890;27;20391;-75
2021/08/17 08:12:58;;;;;;;4.50;3.42;;;;;;;;;;5115263;28;20189;-75
2021/08/17 08:15:25;;;;;;;13.60;3.53;;;;;;;;;;5111757;28;20204;-75
2021/08/17 08:17:52;;;;;;;11.57;3.15;;;;;;;;;;5112556;28;20236;-74
2021/08/17 08:20:21;;;;;;;7.00;3.38;;;;;;;;;;5120279;28;20303;-75
2021/08/17 08:22:49;;;;;;;8.15;3.13;;;;;;;;;;5132729;27;20205;-76
2021/08/17 08:25:17;;;;;;;9.88;3.20;;;;;;;;;;5112745;27;20208;-76
2021/08/17 08:27:44;;;;;;;7.63;3.20;;;;;;;;;;5112493;28;20194;-74
2021/08/17 08:30:12;;;;;;;13.60;3.40;;;;;;;;;;5111967;28;20313;-75
2021/08/17 08:32:40;;;;;;;12.85;3.53;;;;;;;;;;5112135;28;20205;-76
2021/08/17 08:35:08;;;;;;;8.23;3.22;;;;;;;;;;5112539;28;20290;-75
2021/08/17 08:37:36;;;;;;;11.15;3.55;;;;;;;;;;5130118;27;20258;-75
2021/08/17 08:40:04;;;;;;;9.27;3.70;;;;;;;;;;5132258;27;20224;-75
2021/08/17 08:42:31;;;;;;;9.88;4.35;;;;;;;;;;5137349;27;20196;-75
2021/08/17 08:44:59;;;;;;;11.02;3.53;;;;;;;;;;5134799;27;20201;-75
2021/08/17 08:47:26;;;;;;;8.95;3.03;;;;;;;;;;5138067;27;20731;-75
2021/08/17 08:49:54;;;;;;;20.42;4.13;;;;;;;;;;5122569;27;20599;-76
2021/08/17 08:52:23;;;;;;;9.45;3.40;;;;;;;;;;5138127;27;20291;-75
2021/08/17 08:54:52;;;;;;;7.53;3.33;;;;;;;;;;5135614;27;20662;-75
2021/08/17 08:57:20;;;;;;;6.07;3.50;;;;;;;;;;5146711;27;20271;-76
2021/08/17 08:59:48;;;;;;;6.95;3.25;;;;;;;;;;5142784;27;20192;-74
2021/08/17 09:02:17;;;;;;;4.90;2.97;;;;;;;;;;5140789;27;20328;-76
2021/08/17 09:04:51;;;;;;;5.25;3.60;;;;;;;;;;5131898;27;20265;-75
2021/08/17 09:07:32;;;;;;;7.05;3.20;;;;;;;;;;5125471;27;20505;-75
2021/08/17 09:10:02;;;;;;;5.25;2.75;;;;;;;;;;5115559;27;20214;-75
2021/08/17 09:12:34;;;;;;;5.65;2.85;;;;;;;;;;5126415;27;20391;-76
2021/08/17 09:15:05;;;;;;;5.10;2.83;;;;;;;;;;5117772;27;20292;-74
2021/08/17 09:17:33;;;;;;;4.38;2.95;;;;;;;;;;5115418;28;20586;-75
2021/08/17 09:20:00;;;;;;;6.28;3.20;;;;;;;;;;5117062;27;20782;-75
2021/08/17 09:22:28;;;;;;;3.40;2.50;;;;;;;;;;5125992;27;20297;-75
2021/08/17 09:24:56;;;;;;;4.82;2.90;;;;;;;;;;5123159;27;20198;-75
2021/08/17 09:27:27;;;;;;;6.13;2.97;;;;;;;;;;5124113;27;20275;-75
2021/08/17 09:30:01;;;;;;;5.35;2.90;;;;;;;;;;5126974;27;20347;-75
2021/08/17 09:32:30;;;;;;;4.05;2.95;;;;;;;;;;5114137;28;20197;-74
2021/08/17 09:34:58;;;;;;;5.05;2.97;;;;;;;;;;5114300;28;20284;-76
2021/08/17 09:37:27;;;;;;;4.20;2.97;;;;;;;;;;5124224;27;20228;-76
2021/08/17 09:39:55;;;;;;;6.03;2.95;;;;;;;;;;5122876;27;20272;-76
2021/08/17 09:42:24;;;;;;;7.40;3.35;;;;;;;;;;5124732;27;20228;-76
2021/08/17 09:45:19;;;;;;;6.70;2.85;;;;;;;;;;5118242;27;20189;-74
2021/08/17 09:47:47;;;;;;;4.82;2.90;;;;;;;;;;5114408;28;20202;-75
2021/08/17 09:50:18;;;;;;;7.05;3.45;;;;;;;;;;5114258;28;20304;-76
2021/08/17 09:52:46;;;;;;;6.30;3.50;;;;;;;;;;5113267;28;20714;-76
2021/08/17 09:55:17;;;;;;;6.03;3.08;;;;;;;;;;5113393;28;20773;-76
2021/08/17 09:57:44;;;;;;;8.25;3.33;;;;;;;;;;5112425;28;20284;-75
2021/08/17 10:00:16;;;;;;;5.68;3.28;;;;;;;;;;5120028;27;20193;-76
2021/08/17 10:02:45;;;;;;;7.68;3.80;;;;;;;;;;5113873;28;20283;-76
2021/08/17 10:05:14;;;;;;;6.90;3.35;;;;;;;;;;5114047;28;20202;-75
2021/08/17 10:07:42;;;;;;;4.28;2.80;;;;;;;;;;5116037;27;20197;-75
2021/08/17 10:10:11;;;;;;;7.10;2.92;;;;;;;;;;5119890;27;20319;-75
2021/08/17 10:12:39;;;;;;;4.55;3.00;;;;;;;;;;5120967;27;20208;-76
2021/08/17 10:15:07;;;;;;;5.20;2.97;;;;;;;;;;5117759;27;20280;-75
2021/08/17 10:17:35;;;;;;;4.88;2.65;;;;;;;;;;5118810;27;20276;-75
2021/08/17 10:20:03;;;;;;;5.50;2.90;;;;;;;;;;5121063;27;20784;-75
2021/08/17 10:22:34;;;;;;;5.82;3.35;;;;;;;;;;5134351;27;20308;-77
2021/08/17 10:25:06;;;;;;;6.65;3.35;;;;;;;;;;5130082;27;20194;-74
2021/08/17 10:27:34;;;;;;;6.05;2.80;;;;;;;;;;5118919;27;20613;-74
2021/08/17 10:30:20;;;;;;;6.72;2.83;;;;;;;;;;5126729;27;20221;-74
2021/08/17 10:32:50;;;;;;;5.25;2.85;;;;;;;;;;5120997;27;20200;-75
2021/08/17 10:35:36;;;;;;;7.35;3.05;;;;;;;;;;5134571;27;20200;-76
2021/08/17 10:38:23;;;;;;;4.50;2.80;;;;;;;;;;5130719;27;20287;-75
2021/08/17 10:41:05;;;;;;;5.82;2.90;;;;;;;;;;5134214;27;20193;-75
2021/08/17 10:43:51;;;;;;;5.97;3.20;;;;;;;;;;5131209;27;20223;-74
2021/08/17 10:46:18;;;;;;;7.97;3.15;;;;;;;;;;5126177;27;20288;-74
2021/08/17 10:48:56;;;;;;;5.75;3.33;;;;;;;;;;5128786;27;20222;-74
2021/08/17 10:51:38;;;;;;;5.65;3.20;;;;;;;;;;5127064;27;20714;-74
2021/08/17 10:54:16;;;;;;;6.35;3.25;;;;;;;;;;5128183;27;20284;-74
2021/08/17 10:56:44;;;;;;;5.50;2.80;;;;;;;;;;5121128;27;20569;-74
2021/08/17 10:59:12;;;;;;;5.85;2.97;;;;;;;;;;5126204;27;20190;-75
2021/08/17 11:01:39;;;;;;;5.70;3.60;;;;;;;;;;5117837;27;20284;-75
2021/08/17 11:04:09;;;;;;;6.97;3.20;;;;;;;;;;5117614;27;20193;-76
2021/08/17 11:06:44;;;;;;;4.47;2.78;;;;;;;;;;5121121;27;20213;-75
2021/08/17 11:09:12;;;;;;;6.00;3.08;;;;;;;;;;5122406;27;20654;-79
2021/08/17 11:11:40;;;;;;;4.15;2.70;;;;;;;;;;5117793;27;20217;-80
2021/08/17 11:14:09;;;;;;;5.82;3.00;;;;;;;;;;5125657;27;20302;-80
2021/08/17 11:16:40;;;;;;;6.28;2.75;;;;;;;;;;5132612;27;20266;-79
2021/08/17 11:19:09;;;;;;;3.30;2.03;;;;;;;;;;5134819;27;20272;-80
2021/08/17 11:21:37;;;;;;;4.65;2.08;;;;;;;;;;5118421;27;20640;-79
2021/08/17 11:24:08;;;;;;;4.55;2.00;;;;;;;;;;5123215;27;20687;-79
2021/08/17 11:26:36;;;;;;;3.00;2.00;;;;;;;;;;5122668;27;20284;-80
2021/08/17 11:29:04;;;;;;;3.20;2.25;;;;;;;;;;5130288;27;20355;-80
2021/08/17 11:31:31;;;;;;;4.18;2.20;;;;;;;;;;5120352;27;20217;-80
2021/08/17 11:34:16;;;;;;;2.70;1.98;;;;;;;;;;5121250;27;20648;-79
2021/08/17 11:36:49;;;;;;;3.53;2.28;;;;;;;;;;5117694;27;20285;-80
2021/08/17 11:39:17;;;;;;;3.05;1.92;;;;;;;;;;5114006;27;20217;-80
2021/08/17 11:41:45;;;;;;;2.85;1.95;;;;;;;;;;5114473;27;20189;-81
2021/08/17 11:44:12;;;;;;;2.88;2.17;;;;;;;;;;5113863;28;20297;-80
2021/08/17 11:46:39;;;;;;;3.97;2.40;;;;;;;;;;5121643;27;20284;-80
2021/08/17 11:49:21;;;;;;;2.92;2.22;;;;;;;;;;5129928;27;20284;-79
2021/08/17 11:51:48;;;;;;;4.55;2.30;;;;;;;;;;5116047;27;20228;-81
2021/08/17 11:54:16;;;;;;;5.10;2.50;;;;;;;;;;5120058;27;20293;-79
2021/08/17 11:56:44;;;;;;;3.97;2.47;;;;;;;;;;5134409;27;20873;-79
2021/08/17 11:59:11;;;;;;;5.13;2.30;;;;;;;;;;5128761;27;20587;-77
2021/08/17 12:01:38;;;;;;;3.88;2.55;;;;;;;;;;5142087;27;20188;-79
2021/08/17 12:04:09;;;;;;;5.05;2.45;;;;;;;;;;5124114;27;20289;-79
2021/08/17 12:06:40;;;;;;;4.32;2.50;;;;;;;;;;5124495;27;20289;-80
2021/08/17 12:09:20;;;;;;;3.10;2.45;;;;;;;;;;5121593;27;20209;-80
2021/08/17 12:11:57;;;;;;;4.13;2.35;;;;;;;;;;5122015;27;20394;-79
2021/08/17 12:14:25;;;;;;;4.15;2.55;;;;;;;;;;5113704;28;20270;-79
2021/08/17 12:16:53;;;;;;;4.13;2.60;;;;;;;;;;5116789;28;20192;-79
2021/08/17 12:19:21;;;;;;;4.75;2.25;;;;;;;;;;5114167;28;20228;-79
2021/08/17 12:21:49;;;;;;;4.75;2.70;;;;;;;;;;5121150;27;20284;-79
2021/08/17 12:24:25;;;;;;;4.53;2.80;;;;;;;;;;5118295;27;20193;-79
2021/08/17 12:27:00;;;;;;;3.25;2.40;;;;;;;;;;5126902;28;20244;-81
2021/08/17 12:29:27;;;;;;;3.55;2.30;;;;;;;;;;5126888;27;20218;-81
2021/08/17 12:31:55;;;;;;;5.28;2.38;;;;;;;;;;5139137;27;20300;-84
2021/08/17 12:34:24;;;;;;;3.38;2.00;;;;;;;;;;5130143;27;20202;-83
2021/08/17 12:36:55;;;;;;;5.05;2.40;;;;;;;;;;5116436;27;20201;-83
2021/08/17 12:39:23;;;;;;;2.97;2.20;;;;;;;;;;5124513;27;20292;-83
2021/08/17 12:41:52;;;;;;;4.47;2.10;;;;;;;;;;5123589;27;20190;-81
2021/08/17 12:44:21;;;;;;;4.43;2.20;;;;;;;;;;5138815;27;20204;-80
2021/08/17 12:46:58;;;;;;;4.38;2.50;;;;;;;;;;5122133;27;20288;-80
2021/08/17 12:49:25;;;;;;;4.72;2.35;;;;;;;;;;5124989;27;20237;-80
2021/08/17 12:51:54;;;;;;;5.22;2.22;;;;;;;;;;5130337;27;20235;-79
2021/08/17 12:54:21;;;;;;;4.70;2.17;;;;;;;;;;5143120;27;20231;-79
2021/08/17 12:56:48;;;;;;;6.72;2.55;;;;;;;;;;5137953;27;20291;-80
2021/08/17 12:59:15;;;;;;;3.65;2.30;;;;;;;;;;5132836;27;20281;-80
2021/08/17 13:01:43;;;;;;;4.75;2.88;;;;;;;;;;5138180;27;20271;-80
2021/08/17 13:04:10;;;;;;;5.25;2.90;;;;;;;;;;5129701;27;20201;-81
2021/08/17 13:06:37;;;;;;;5.00;2.30;;;;;;;;;;5132239;27;20264;-80
2021/08/17 13:09:06;;;;;;;4.35;2.63;;;;;;;;;;5117765;27;20665;-77
2021/08/17 13:11:33;;;;;;;5.30;2.55;;;;;;;;;;5134265;27;20213;-80
2021/08/17 13:14:00;;;;;;;7.97;2.47;;;;;;;;;;5129246;27;20577;-80
2021/08/17 13:16:27;;;;;;;5.47;2.55;;;;;;;;;;5126216;27;20705;-80
2021/08/17 13:18:54;;;;;;;5.63;2.47;;;;;;;;;;5121567;27;21607;-81
2021/08/17 13:21:21;;;;;;;3.05;2.38;;;;;;;;;;5138282;27;20767;-82
2021/08/17 13:23:49;;;;;;;5.38;2.47;;;;;;;;;;5129605;27;20280;-82
2021/08/17 13:26:17;;;;;;;6.55;2.40;;;;;;;;;;5134348;27;20228;-83
2021/08/17 13:28:45;;;;;;;5.95;2.50;;;;;;;;;;5135129;27;20224;-83
2021/08/17 13:31:12;;;;;;;3.35;2.38;;;;;;;;;;5132127;27;20206;-86
2021/08/17 13:33:39;;;;;;;5.40;2.60;;;;;;;;;;5133061;27;20276;-87
2021/08/17 13:36:07;;;;;;;5.13;3.00;;;;;;;;;;5129150;27;20224;-82
2021/08/17 13:38:34;;;;;;;3.10;2.60;;;;;;;;;;5116348;27;20688;-81
2021/08/17 13:41:01;;;;;;;3.72;2.58;;;;;;;;;;5122700;27;20566;-81
2021/08/17 13:43:30;;;;;;;3.88;2.83;;;;;;;;;;5122960;27;20515;-85
2021/08/17 13:45:59;;;;;;;3.75;2.90;;;;;;;;;;5121654;27;20193;-85
2021/08/17 13:48:26;;;;;;;4.15;2.88;;;;;;;;;;5121314;27;20673;-83
2021/08/17 13:50:54;;;;;;;4.18;2.75;;;;;;;;;;5115005;27;20217;-85
2021/08/17 13:53:21;;;;;;;5.40;3.10;;;;;;;;;;5121650;27;20205;-85
2021/08/17 13:55:48;;;;;;;4.97;3.25;;;;;;;;;;5120683;27;20240;-85
2021/08/17 13:58:16;;;;;;;5.03;3.50;;;;;;;;;;5124756;27;20280;-85
2021/08/17 14:00:45;;;;;;;5.80;3.20;;;;;;;;;;5131036;27;20205;-85
2021/08/17 14:03:13;;;;;;;6.15;3.25;;;;;;;;;;5113997;28;20205;-85
2021/08/17 14:05:42;;;;;;;5.70;3.17;;;;;;;;;;5114308;28;20305;-85
2021/08/17 14:08:09;;;;;;;5.80;3.42;;;;;;;;;;5114423;28;20200;-85
2021/08/17 14:10:36;;;;;;;4.88;3.53;;;;;;;;;;5118358;27;20237;-86
2021/08/17 14:13:05;;;;;;;5.75;3.55;;;;;;;;;;5121122;27;20310;-85
2021/08/17 14:15:33;;;;;;;6.75;3.40;;;;;;;;;;5124397;27;20225;-85
2021/08/17 14:18:01;;;;;;;4.22;3.42;;;;;;;;;;5125516;27;20280;-85
2021/08/17 14:20:28;;;;;;;5.00;2.90;;;;;;;;;;5113747;28;20289;-85
2021/08/17 14:22:56;;;;;;;7.38;3.50;;;;;;;;;;5128605;27;20236;-85
2021/08/17 14:25:23;;;;;;;5.57;3.30;;;;;;;;;;5125327;27;20775;-84
2021/08/17 14:27:50;;;;;;;4.28;2.80;;;;;;;;;;5127734;27;20201;-85
2021/08/17 14:30:17;;;;;;;5.65;3.25;;;;;;;;;;5128056;27;20232;-85
2021/08/17 14:32:46;;;;;;;5.22;3.10;;;;;;;;;;5123721;27;20668;-84
2021/08/17 14:35:14;;;;;;;7.60;3.10;;;;;;;;;;5123918;27;20189;-84
2021/08/17 14:37:42;;;;;;;7.47;3.50;;;;;;;;;;5126489;27;20229;-85
2021/08/17 14:40:09;;;;;;;4.93;3.30;;;;;;;;;;5119834;27;20640;-84
2021/08/17 14:42:37;;;;;;;5.97;3.10;;;;;;;;;;5121632;27;20272;-84
2021/08/17 14:45:04;;;;;;;7.03;2.83;;;;;;;;;;5116353;27;20280;-84